createdAt,value
2022-09-12T00:01:23.065Z,68.54
2022-09-12T00:04:01.243Z,68.31
2022-09-12T00:06:34.746Z,68.71
2022-09-12T00:09:07.182Z,68.96
2022-09-12T00:11:39.766Z,68.83
2022-09-12T00:14:12.239Z,68.95
2022-09-12T00:16:40.780Z,68.97
2022-09-12T00:19:09.176Z,69.74
2022-09-12T00:21:39.231Z,70.17
2022-09-12T00:24:07.415Z,67.91
2022-09-12T00:26:35.598Z,68.65
2022-09-12T00:29:03.116Z,68.62
2022-09-12T00:31:31.161Z,68.33
2022-09-12T00:34:00.972Z,68.39
2022-09-12T00:36:31.077Z,68.22
2022-09-12T00:38:59.101Z,67.58
2022-09-12T00:41:32.303Z,67.76
2022-09-12T00:44:48.742Z,67.24
2022-09-12T00:47:29.056Z,66.22
2022-09-12T00:50:03.581Z,67.04
2022-09-12T00:52:53.027Z,66.69
2022-09-12T00:55:32.460Z,66.08
2022-09-12T00:58:15.304Z,66.71
2022-09-12T01:00:43.346Z,65.33
2022-09-12T01:03:14.865Z,66.53
2022-09-12T01:05:49.575Z,67.36
2022-09-12T01:08:17.971Z,67.73
2022-09-12T01:10:46.681Z,64.82
2022-09-12T01:13:15.518Z,65.78
2022-09-12T01:15:43.603Z,66.24
2022-09-12T01:18:21.288Z,66.81
2022-09-12T01:21:10.356Z,66.71
2022-09-12T01:23:51.445Z,65.16
2022-09-12T01:26:54.195Z,65.74
2022-09-12T01:30:04.627Z,65.69
2022-09-12T01:32:41.315Z,65.89
2022-09-12T01:35:16.757Z,64.53
2022-09-12T01:38:25.749Z,63.54
2022-09-12T01:41:03.041Z,65.04
2022-09-12T01:43:49.562Z,65.42
2022-09-12T01:46:29.966Z,65.67
2022-09-12T01:49:09.082Z,64.75
2022-09-12T01:51:41.637Z,64.64
2022-09-12T01:54:21.598Z,64.17
2022-09-12T01:56:53.920Z,65.26
2022-09-12T01:59:28.790Z,66.54
2022-09-12T02:02:03.171Z,64.54
2022-09-12T02:04:52.855Z,65.52
2022-09-12T02:07:38.266Z,66.92
2022-09-12T02:10:09.643Z,66.19
2022-09-12T02:12:46.559Z,67.48
2022-09-12T02:15:16.040Z,67.78
2022-09-12T02:17:46.402Z,67.42
2022-09-12T02:20:48.576Z,65.21
2022-09-12T02:23:23.149Z,65.11
2022-09-12T02:25:55.178Z,64.25
2022-09-12T02:28:28.535Z,66.39
2022-09-12T02:31:34.621Z,67.21
2022-09-12T02:34:25.034Z,67.71
2022-09-12T02:37:02.285Z,67.50
2022-09-12T02:39:30.053Z,66.48
2022-09-12T02:42:01.137Z,67.27
2022-09-12T02:44:31.390Z,66.32
2022-09-12T02:47:11.478Z,64.99
2022-09-12T02:49:39.655Z,65.67
2022-09-12T02:52:07.182Z,66.00
2022-09-12T02:54:35.342Z,65.32
2022-09-12T02:57:02.451Z,64.20
2022-09-12T02:59:29.876Z,64.17
2022-09-12T03:02:17.256Z,63.59
2022-09-12T03:05:30.600Z,64.37
2022-09-12T03:08:12.367Z,65.87
2022-09-12T03:11:08.408Z,65.18
2022-09-12T03:13:45.519Z,64.69
2022-09-12T03:16:35.879Z,65.76
2022-09-12T03:19:25.525Z,63.36
2022-09-12T03:22:04.392Z,64.06
2022-09-12T03:24:38.370Z,63.66
2022-09-12T03:27:24.386Z,63.45
2022-09-12T03:29:53.120Z,63.93
2022-09-12T03:32:20.495Z,64.81
2022-09-12T03:34:48.272Z,63.35
2022-09-12T03:37:15.666Z,63.19
2022-09-12T03:39:43.307Z,63.58
2022-09-12T03:42:10.670Z,64.18
2022-09-12T03:44:38.308Z,63.13
2022-09-12T03:47:10.568Z,62.48
2022-09-12T03:49:38.365Z,62.60
2022-09-12T03:52:05.560Z,63.17
2022-09-12T03:54:32.859Z,62.71
2022-09-12T03:57:00.275Z,62.04
2022-09-12T03:59:27.533Z,61.31
2022-09-12T04:01:54.855Z,61.95
2022-09-12T04:04:22.514Z,61.79
2022-09-12T04:06:49.917Z,62.12
2022-09-12T04:09:17.655Z,62.26
2022-09-12T04:11:44.741Z,62.38
2022-09-12T04:14:12.914Z,62.67
2022-09-12T04:16:40.281Z,62.95
2022-09-12T04:19:08.258Z,62.23
2022-09-12T04:21:36.493Z,61.82
2022-09-12T04:24:05.184Z,63.37
2022-09-12T04:26:32.376Z,63.72
2022-09-12T04:29:00.706Z,63.62
2022-09-12T04:31:28.174Z,63.04
2022-09-12T04:33:59.068Z,63.70
2022-09-12T04:36:28.372Z,63.41
2022-09-12T04:38:56.086Z,64.51
2022-09-12T04:41:26.524Z,64.34
2022-09-12T04:43:58.928Z,64.49
2022-09-12T04:46:27.131Z,65.04
2022-09-12T04:48:57.108Z,63.79
2022-09-12T04:51:36.120Z,63.83
2022-09-12T04:54:09.508Z,64.28
2022-09-12T04:56:42.404Z,63.83
2022-09-12T04:59:10.938Z,64.53
2022-09-12T05:01:38.553Z,65.59
2022-09-12T05:04:06.056Z,64.55
2022-09-12T05:06:36.863Z,63.91
2022-09-12T05:09:07.589Z,65.87
2022-09-12T05:12:02.706Z,64.39
2022-09-12T05:14:25.899Z,65.51
2022-09-12T05:16:53.284Z,64.66
2022-09-12T05:19:21.010Z,65.06
2022-09-12T05:21:47.923Z,65.73
2022-09-12T05:24:15.697Z,65.54
2022-09-12T05:26:42.777Z,66.02
2022-09-12T05:29:10.499Z,65.25
2022-09-12T05:31:37.774Z,64.46
2022-09-12T05:34:07.215Z,65.12
2022-09-12T05:36:34.642Z,67.14
2022-09-12T05:39:04.588Z,65.65
2022-09-12T05:41:33.997Z,66.24
2022-09-12T05:44:05.316Z,67.14
2022-09-12T05:46:41.302Z,67.26
2022-09-12T05:49:11.872Z,65.06
2022-09-12T05:51:43.475Z,65.19
2022-09-12T05:54:14.714Z,67.25
2022-09-12T05:56:44.145Z,67.28
2022-09-12T05:59:14.823Z,65.66
2022-09-12T06:01:42.927Z,65.99
2022-09-12T06:04:11.036Z,67.23
2022-09-12T06:06:50.785Z,67.81
2022-09-12T06:09:18.936Z,65.91
2022-09-12T06:11:46.817Z,67.21
2022-09-12T06:14:17.378Z,65.48
2022-09-12T06:16:45.115Z,68.56
2022-09-12T06:19:18.418Z,68.64
2022-09-12T06:21:46.296Z,68.83
2022-09-12T06:24:14.163Z,65.86
2022-09-12T06:26:42.561Z,65.62
2022-09-12T06:29:11.679Z,67.95
2022-09-12T06:31:44.549Z,67.04
2022-09-12T06:34:14.340Z,66.97
2022-09-12T06:36:45.521Z,67.89
2022-09-12T06:39:18.441Z,66.58
2022-09-12T06:41:47.624Z,68.04
2022-09-12T06:44:17.933Z,68.48
2022-09-12T06:46:46.305Z,68.80
2022-09-12T06:49:14.362Z,67.79
2022-09-12T06:51:43.137Z,66.03
2022-09-12T06:54:13.546Z,67.04
2022-09-12T06:56:41.516Z,69.35
2022-09-12T06:59:08.739Z,69.20
2022-09-12T07:01:36.255Z,68.96
2022-09-12T07:04:05.156Z,68.45
2022-09-12T07:06:38.629Z,67.05
2022-09-12T07:09:09.024Z,68.40
2022-09-12T07:11:38.693Z,65.41
2022-09-12T07:14:08.227Z,65.33
2022-09-12T07:16:36.986Z,68.29
2022-09-12T07:19:06.073Z,66.54
2022-09-12T07:21:33.491Z,66.94
2022-09-12T07:24:01.122Z,68.63
2022-09-12T07:26:30.600Z,69.25
2022-09-12T07:29:19.077Z,70.79
2022-09-12T07:31:47.241Z,68.58
2022-09-12T07:34:15.986Z,67.51
2022-09-12T07:36:43.672Z,68.17
2022-09-12T07:39:11.520Z,69.80
2022-09-12T07:41:39.270Z,69.71
2022-09-12T07:44:07.293Z,68.38
2022-09-12T07:46:35.681Z,69.45
2022-09-12T07:49:03.653Z,67.37
2022-09-12T07:51:32.198Z,66.34
2022-09-12T07:54:00.065Z,69.19
2022-09-12T07:56:31.260Z,70.81
2022-09-12T07:59:00.112Z,64.31
2022-09-12T08:01:27.746Z,71.22
2022-09-12T08:03:57.676Z,68.64
2022-09-12T08:06:26.612Z,66.93
2022-09-12T08:08:56.637Z,66.40
2022-09-12T08:11:25.691Z,64.97
2022-09-12T08:13:56.264Z,61.52
2022-09-12T08:16:29.903Z,62.52
2022-09-12T08:18:57.834Z,65.06
2022-09-12T08:21:27.675Z,65.73
2022-09-12T08:24:04.025Z,61.65
2022-09-12T08:26:32.851Z,66.61
2022-09-12T08:29:00.814Z,61.76
2022-09-12T08:31:29.400Z,65.84
2022-09-12T08:33:58.199Z,63.11
2022-09-12T08:36:28.460Z,63.62
2022-09-12T08:39:01.918Z,64.34
2022-09-12T08:41:39.702Z,64.32
2022-09-12T08:44:25.606Z,58.21
2022-09-12T08:47:05.750Z,61.83
2022-09-12T08:49:57.362Z,62.55
2022-09-12T08:52:31.317Z,61.36
2022-09-12T08:54:59.118Z,59.10
2022-09-12T08:57:26.845Z,61.63
2022-09-12T08:59:54.906Z,61.91
2022-09-12T09:03:01.847Z,60.91
2022-09-12T09:05:49.306Z,62.90
2022-09-12T09:08:28.690Z,58.85
2022-09-12T09:11:26.554Z,57.27
2022-09-12T09:14:31.727Z,59.28
2022-09-12T09:17:01.381Z,61.80
2022-09-12T09:19:37.637Z,58.98
2022-09-12T09:22:23.795Z,56.18
2022-09-12T09:25:02.100Z,56.98
2022-09-12T09:27:40.967Z,55.52
2022-09-12T09:30:18.898Z,56.14
2022-09-12T09:32:52.069Z,56.60
2022-09-12T09:35:46.595Z,56.44
2022-09-12T09:39:00.613Z,54.77
2022-09-12T09:41:56.077Z,57.29
2022-09-12T09:44:24.295Z,56.72
2022-09-12T09:46:56.158Z,55.64
2022-09-12T09:49:26.548Z,53.38
2022-09-12T09:51:56.585Z,54.32
2022-09-12T09:54:41.570Z,53.75
2022-09-12T09:57:36.705Z,54.97
2022-09-12T10:00:23.229Z,53.30
2022-09-12T10:03:08.207Z,51.22
2022-09-12T10:05:50.667Z,52.21
2022-09-12T10:08:36.820Z,55.50
2022-09-12T10:11:07.353Z,51.79
2022-09-12T10:13:36.352Z,56.08
2022-09-12T10:16:08.328Z,55.78
2022-09-12T10:18:42.484Z,53.20
2022-09-12T10:21:19.003Z,55.82
2022-09-12T10:23:48.744Z,54.17
2022-09-12T10:26:20.198Z,55.12
2022-09-12T10:28:52.521Z,53.74
2022-09-12T10:31:32.428Z,54.20
2022-09-12T10:34:01.163Z,55.83
2022-09-12T10:36:41.114Z,56.85
2022-09-12T10:39:18.831Z,54.29
2022-09-12T10:41:47.867Z,55.32
2022-09-12T10:44:26.316Z,55.57
2022-09-12T10:46:55.111Z,54.72
2022-09-12T10:49:28.728Z,52.42
2022-09-12T10:52:16.168Z,52.74
2022-09-12T10:54:44.208Z,52.41
2022-09-12T10:57:14.428Z,53.62
2022-09-12T10:59:57.107Z,49.52
2022-09-12T11:02:51.317Z,48.50
2022-09-12T11:05:43.466Z,48.98
2022-09-12T11:08:38.161Z,51.45
2022-09-12T11:11:18.784Z,53.79
2022-09-12T11:13:57.672Z,52.42
2022-09-12T11:16:49.219Z,51.97
2022-09-12T11:19:34.344Z,49.45
2022-09-12T11:22:45.849Z,52.47
2022-09-12T11:25:20.759Z,53.30
2022-09-12T11:28:14.192Z,53.59
2022-09-12T11:31:19.425Z,54.12
2022-09-12T11:33:54.972Z,53.03
2022-09-12T11:36:38.025Z,51.85
2022-09-12T11:39:18.027Z,48.94
2022-09-12T11:41:51.634Z,49.38
2022-09-12T11:44:24.060Z,50.66
2022-09-12T11:46:52.281Z,50.03
2022-09-12T11:49:25.499Z,47.84
2022-09-12T11:51:58.397Z,50.15
2022-09-12T11:55:00.155Z,49.60
2022-09-12T11:57:37.281Z,51.98
2022-09-12T12:00:10.299Z,52.76
2022-09-12T12:03:07.270Z,50.82
2022-09-12T12:05:41.790Z,50.69
2022-09-12T12:08:11.267Z,53.18
2022-09-12T12:10:56.741Z,54.96
2022-09-12T12:13:36.314Z,55.84
2022-09-12T12:16:25.522Z,54.99
2022-09-12T12:19:02.082Z,52.57
2022-09-12T12:21:36.943Z,53.60
2022-09-12T12:24:13.126Z,52.80
2022-09-12T12:26:42.336Z,53.18
2022-09-12T12:29:44.282Z,52.93
2022-09-12T12:32:36.824Z,52.21
2022-09-12T12:35:46.437Z,52.02
2022-09-12T12:38:39.561Z,50.80
2022-09-12T12:41:19.027Z,52.88
2022-09-12T12:43:52.969Z,52.78
2022-09-12T12:46:26.122Z,52.32
2022-09-12T12:49:25.971Z,51.89
2022-09-12T12:52:01.779Z,52.25
2022-09-12T12:54:41.495Z,50.92
2022-09-12T12:57:40.702Z,50.42
2022-09-12T13:00:44.088Z,52.02
2022-09-12T13:03:28.412Z,50.69
2022-09-12T13:06:02.316Z,48.94
2022-09-12T13:08:35.754Z,50.07
2022-09-12T13:11:27.454Z,50.91
2022-09-12T13:14:04.878Z,51.26
2022-09-12T13:16:52.061Z,50.94
2022-09-12T13:19:30.669Z,50.41
2022-09-12T13:22:10.318Z,49.16
2022-09-12T13:24:49.332Z,49.00
2022-09-12T13:27:20.829Z,50.61
2022-09-12T13:29:48.355Z,47.83
2022-09-12T13:32:18.536Z,44.34
2022-09-12T13:34:46.188Z,46.01
2022-09-12T13:37:35.408Z,48.16
2022-09-12T13:40:18.688Z,49.80
2022-09-12T13:42:50.336Z,46.60
2022-09-12T13:45:28.905Z,46.43
2022-09-12T13:48:04.629Z,46.05
2022-09-12T13:50:39.379Z,46.84
2022-09-12T13:53:11.856Z,47.05
2022-09-12T13:55:54.131Z,49.21
2022-09-12T13:58:23.134Z,49.49
2022-09-12T14:01:08.774Z,49.92
2022-09-12T14:04:18.291Z,50.57
2022-09-12T14:06:49.334Z,49.74
2022-09-12T14:09:41.517Z,48.48
2022-09-12T14:12:43.895Z,49.88
2022-09-12T14:15:38.123Z,47.95
2022-09-12T14:18:09.549Z,48.93
2022-09-12T14:20:38.742Z,49.33
2022-09-12T14:23:25.856Z,50.07
2022-09-12T14:25:55.775Z,48.51
2022-09-12T14:28:23.948Z,48.49
2022-09-12T14:31:07.344Z,50.04
2022-09-12T14:34:15.681Z,48.23
2022-09-12T14:36:50.548Z,48.75
2022-09-12T14:39:17.872Z,49.02
2022-09-12T14:41:46.660Z,50.22
2022-09-12T14:44:27.714Z,50.04
2022-09-12T14:46:55.499Z,51.45
2022-09-12T14:49:36.520Z,49.17
2022-09-12T14:52:21.864Z,50.69
2022-09-12T14:55:28.121Z,51.52
2022-09-12T14:58:16.580Z,50.54
2022-09-12T15:01:12.935Z,51.23
2022-09-12T15:03:51.956Z,50.40
2022-09-12T15:06:38.967Z,50.85
2022-09-12T15:09:09.231Z,49.95
2022-09-12T15:11:37.301Z,49.38
2022-09-12T15:14:14.240Z,49.03
2022-09-12T15:16:42.471Z,49.45
2022-09-12T15:19:09.852Z,48.32
2022-09-12T15:21:36.983Z,49.07
2022-09-12T15:24:04.759Z,50.46
2022-09-12T15:26:33.069Z,49.54
2022-09-12T15:29:01.505Z,49.11
2022-09-12T15:31:32.119Z,49.01
2022-09-12T15:34:03.043Z,50.00
2022-09-12T15:36:31.630Z,50.47
2022-09-12T15:38:59.850Z,49.98
2022-09-12T15:41:37.098Z,49.99
2022-09-12T15:44:06.398Z,50.67
2022-09-12T15:46:33.976Z,50.03
2022-09-12T15:49:02.488Z,50.86
2022-09-12T15:51:29.920Z,52.13
2022-09-12T15:53:58.045Z,52.22
2022-09-12T15:56:25.534Z,51.25
2022-09-12T15:59:00.502Z,51.69
2022-09-12T16:01:29.478Z,51.40
2022-09-12T16:03:57.545Z,51.04
2022-09-12T16:06:25.123Z,51.50
2022-09-12T16:08:53.234Z,51.41
2022-09-12T16:11:23.432Z,52.17
2022-09-12T16:13:53.353Z,52.02
2022-09-12T16:16:21.503Z,52.43
2022-09-12T16:18:48.737Z,51.81
2022-09-12T16:21:16.042Z,51.96
2022-09-12T16:23:44.987Z,52.03
2022-09-12T16:26:13.213Z,52.21
2022-09-12T16:28:41.884Z,51.88
2022-09-12T16:31:12.310Z,52.66
2022-09-12T16:33:41.062Z,52.26
2022-09-12T16:36:11.561Z,53.28
2022-09-12T16:38:47.220Z,52.66
2022-09-12T16:41:17.233Z,52.36
2022-09-12T16:43:46.263Z,53.33
2022-09-12T16:46:19.809Z,53.79
2022-09-12T16:48:55.517Z,53.16
2022-09-12T16:51:26.867Z,54.19
2022-09-12T16:53:55.932Z,53.91
2022-09-12T16:56:24.875Z,53.96
2022-09-12T16:58:53.101Z,53.00
2022-09-12T17:01:23.602Z,53.94
2022-09-12T17:03:56.373Z,53.76
2022-09-12T17:06:25.428Z,54.29
2022-09-12T17:08:54.717Z,54.05
2022-09-12T17:11:25.301Z,54.34
2022-09-12T17:14:05.560Z,53.76
2022-09-12T17:16:36.866Z,54.56
2022-09-12T17:19:05.555Z,53.68
2022-09-12T17:21:32.914Z,54.44
2022-09-12T17:24:01.083Z,53.88
2022-09-12T17:26:28.599Z,54.11
2022-09-12T17:28:56.534Z,54.00
2022-09-12T17:31:23.877Z,54.44
2022-09-12T17:33:51.862Z,54.60
2022-09-12T17:36:19.356Z,54.51
2022-09-12T17:38:47.499Z,53.85
2022-09-12T17:41:17.926Z,52.97
2022-09-12T17:43:50.313Z,52.95
2022-09-12T17:46:19.869Z,53.72
2022-09-12T18:17:53.860Z,53.87
2022-09-12T18:20:21.591Z,54.74
2022-09-12T18:22:52.231Z,54.65
2022-09-12T18:25:19.581Z,54.34
2022-09-12T18:27:46.907Z,53.68
2022-09-12T18:30:21.472Z,53.14
2022-09-12T18:32:49.592Z,52.57
2022-09-12T18:35:17.314Z,53.18
2022-09-12T18:37:45.058Z,52.12
2022-09-12T18:40:12.443Z,53.03
2022-09-12T18:42:39.905Z,53.67
2022-09-12T18:45:07.813Z,53.91
2022-09-12T18:47:35.489Z,53.92
2022-09-12T18:50:02.710Z,53.03
2022-09-12T18:52:31.180Z,53.20
2022-09-12T18:54:58.533Z,54.03
2022-09-12T18:57:26.576Z,54.56
2022-09-12T18:59:54.970Z,55.76
2022-09-12T19:02:25.297Z,55.55
2022-09-12T19:04:52.629Z,55.63
2022-09-12T19:07:21.125Z,55.06
2022-09-12T19:09:48.318Z,55.56
2022-09-12T19:12:16.610Z,53.49
2022-09-12T19:14:43.726Z,53.23
2022-09-12T19:17:11.900Z,53.32
2022-09-12T19:19:40.671Z,53.76
2022-09-12T19:22:08.308Z,54.63
2022-09-12T19:24:35.962Z,55.15
2022-09-12T19:27:03.973Z,55.27
2022-09-12T19:29:31.213Z,55.49
2022-09-12T19:31:58.423Z,54.93
2022-09-12T19:34:25.854Z,55.24
2022-09-12T19:36:54.823Z,55.73
2022-09-12T19:39:24.132Z,54.11
2022-09-12T19:41:54.682Z,53.34
2022-09-12T19:44:23.902Z,53.26
2022-09-12T19:46:51.819Z,53.42
2022-09-12T19:49:20.265Z,54.48
2022-09-12T19:51:47.521Z,55.23
2022-09-12T19:54:14.878Z,55.84
2022-09-12T19:56:42.747Z,55.70
2022-09-12T19:59:09.809Z,55.69
2022-09-12T20:01:37.956Z,55.86
2022-09-12T20:04:06.904Z,56.26
2022-09-12T20:06:34.708Z,56.26
2022-09-12T20:09:02.207Z,54.84
2022-09-12T20:11:29.714Z,55.29
2022-09-12T20:13:56.873Z,54.55
2022-09-12T20:16:26.783Z,54.40
2022-09-12T20:19:00.429Z,54.34
2022-09-12T20:21:34.558Z,53.57
2022-09-12T20:24:12.162Z,54.22
2022-09-12T20:26:41.039Z,54.24
2022-09-12T20:29:09.446Z,54.86
2022-09-12T20:31:39.561Z,53.92
2022-09-12T20:34:12.764Z,54.26
2022-09-12T20:36:40.569Z,54.57
2022-09-12T20:39:08.047Z,55.33
2022-09-12T20:41:36.816Z,54.94
2022-09-12T20:44:04.232Z,55.62
2022-09-12T20:46:32.264Z,56.20
2022-09-12T20:48:59.641Z,55.86
2022-09-12T20:51:27.488Z,56.27
2022-09-12T20:53:57.863Z,55.92
2022-09-12T20:56:27.239Z,55.92
2022-09-12T20:58:55.834Z,55.16
2022-09-12T21:01:24.716Z,55.23
2022-09-12T21:03:53.251Z,56.33
2022-09-12T21:06:22.034Z,56.54
2022-09-12T21:08:50.535Z,55.68
2022-09-12T21:11:20.445Z,55.99
2022-09-12T21:13:47.872Z,56.11
2022-09-12T21:16:18.809Z,56.38
2022-09-12T21:18:47.179Z,56.00
2022-09-12T21:21:16.192Z,56.90
2022-09-12T21:23:43.991Z,57.25
2022-09-12T21:26:12.124Z,56.52
2022-09-12T21:28:40.395Z,57.21
2022-09-12T21:31:07.764Z,57.62
2022-09-12T21:33:36.268Z,56.51
2022-09-12T21:36:05.766Z,57.05
2022-09-12T21:38:34.249Z,56.85
2022-09-12T21:41:09.081Z,56.76
2022-09-12T21:43:37.920Z,57.40
2022-09-12T21:46:06.341Z,57.66
2022-09-12T21:48:34.275Z,56.64
2022-09-12T21:51:02.410Z,56.89
2022-09-12T21:53:30.739Z,57.73
2022-09-12T21:56:05.904Z,58.07
2022-09-12T21:58:33.924Z,58.27
2022-09-12T22:01:01.634Z,58.38
2022-09-12T22:03:30.786Z,56.71
2022-09-12T22:06:03.150Z,57.55
2022-09-12T22:08:32.557Z,56.55
2022-09-12T22:11:02.198Z,57.12
2022-09-12T22:13:34.038Z,57.27
2022-09-12T22:16:03.342Z,57.50
2022-09-12T22:18:34.324Z,57.59
2022-09-12T22:21:24.392Z,58.00
2022-09-12T22:24:10.917Z,57.35
2022-09-12T22:26:43.730Z,56.88
2022-09-12T22:29:13.656Z,57.44
2022-09-12T22:31:41.448Z,56.94
2022-09-12T22:34:09.240Z,57.33
2022-09-12T22:36:38.962Z,56.45
2022-09-12T22:39:07.457Z,56.06
2022-09-12T22:41:35.117Z,56.61
2022-09-12T22:44:02.692Z,56.63
2022-09-12T22:46:30.712Z,56.97
2022-09-12T22:48:58.892Z,56.93
2022-09-12T22:51:28.944Z,56.97
2022-09-12T22:53:57.230Z,56.81
2022-09-12T22:56:24.992Z,57.17
2022-09-12T22:58:53.218Z,57.32
2022-09-12T23:01:20.534Z,57.61
2022-09-12T23:03:48.578Z,57.54
2022-09-12T23:06:16.583Z,57.73
2022-09-12T23:08:44.764Z,57.77
2022-09-12T23:11:18.691Z,57.67
2022-09-12T23:13:48.627Z,58.08
2022-09-12T23:16:19.564Z,57.64
2022-09-12T23:18:47.896Z,57.27
2022-09-12T23:21:17.596Z,57.08
2022-09-12T23:23:45.893Z,56.93
2022-09-12T23:26:14.207Z,56.47
2022-09-12T23:28:47.634Z,56.78
2022-09-12T23:31:15.280Z,57.17
2022-09-12T23:33:44.265Z,57.41
2022-09-12T23:36:14.554Z,57.25
2022-09-12T23:38:43.948Z,56.54
2022-09-12T23:41:13.255Z,56.23
2022-09-12T23:43:41.096Z,56.92
2022-09-12T23:46:09.987Z,57.33
2022-09-12T23:48:37.923Z,56.74
2022-09-12T23:51:06.135Z,56.77
2022-09-12T23:53:35.956Z,56.48
2022-09-12T23:56:04.182Z,56.34
2022-09-12T23:58:31.661Z,56.84
